createdAt,value
2023-04-20T00:01:36.125Z,99.90
2023-04-20T00:04:22.725Z,99.90
2023-04-20T00:07:09.771Z,99.90
2023-04-20T00:09:57.520Z,99.90
2023-04-20T00:12:43.988Z,99.90
2023-04-20T00:15:31.092Z,99.90
2023-04-20T00:18:17.619Z,99.90
2023-04-20T00:21:04.086Z,99.90
2023-04-20T00:23:50.822Z,99.90
2023-04-20T00:26:38.785Z,99.90
2023-04-20T00:29:26.286Z,99.90
2023-04-20T00:32:12.730Z,99.90
2023-04-20T00:35:01.309Z,99.90
2023-04-20T00:37:47.730Z,99.90
2023-04-20T00:40:35.342Z,99.90
2023-04-20T00:43:25.876Z,99.90
2023-04-20T00:46:12.401Z,99.90
2023-04-20T00:48:59.439Z,99.90
2023-04-20T00:51:46.808Z,99.90
2023-04-20T00:54:33.695Z,99.90
2023-04-20T00:57:23.995Z,99.90
2023-04-20T01:00:13.646Z,99.90
2023-04-20T01:03:00.799Z,99.90
2023-04-20T01:05:47.802Z,99.90
2023-04-20T01:08:34.622Z,99.90
2023-04-20T01:11:24.023Z,99.90
2023-04-20T01:14:11.047Z,99.90
2023-04-20T01:16:59.541Z,99.90
2023-04-20T01:19:46.454Z,99.90
2023-04-20T01:22:34.224Z,99.90
2023-04-20T01:25:21.268Z,99.90
2023-04-20T01:28:07.622Z,99.90
2023-04-20T01:30:53.988Z,99.90
2023-04-20T01:33:41.417Z,99.90
2023-04-20T01:36:28.145Z,99.90
2023-04-20T01:39:16.134Z,99.90
2023-04-20T01:42:02.886Z,99.90
2023-04-20T01:44:49.644Z,99.90
2023-04-20T01:47:38.014Z,99.90
2023-04-20T01:50:26.784Z,99.90
2023-04-20T01:53:13.765Z,99.90
2023-04-20T01:56:01.857Z,99.90
2023-04-20T01:58:48.430Z,99.90
2023-04-20T02:01:35.878Z,99.90
2023-04-20T02:04:22.625Z,99.90
2023-04-20T02:07:09.101Z,99.90
2023-04-20T02:09:58.553Z,99.90
2023-04-20T02:12:46.740Z,99.90
2023-04-20T02:15:33.531Z,99.90
2023-04-20T02:18:19.868Z,99.90
2023-04-20T02:21:07.292Z,99.90
2023-04-20T02:23:54.213Z,99.90
2023-04-20T02:26:41.196Z,99.90
2023-04-20T02:29:28.858Z,99.90
2023-04-20T02:32:15.377Z,99.90
2023-04-20T02:35:01.850Z,99.90
2023-04-20T02:37:48.465Z,99.90
2023-04-20T02:40:34.996Z,99.90
2023-04-20T02:43:22.505Z,99.90
2023-04-20T02:46:10.797Z,99.90
2023-04-20T02:48:57.648Z,99.90
2023-04-20T02:51:45.772Z,99.90
2023-04-20T02:54:32.443Z,99.90
2023-04-20T02:57:19.518Z,99.90
2023-04-20T03:00:09.448Z,99.90
2023-04-20T03:03:17.713Z,99.90
2023-04-20T03:06:05.399Z,99.90
2023-04-20T03:08:52.238Z,99.90
2023-04-20T03:12:03.283Z,99.90
2023-04-20T03:15:13.422Z,99.90
2023-04-20T03:18:10.799Z,99.90
2023-04-20T03:20:59.009Z,99.90
2023-04-20T03:23:45.920Z,99.90
2023-04-20T03:26:32.730Z,99.90
2023-04-20T03:29:46.072Z,99.90
2023-04-20T03:32:32.960Z,99.90
2023-04-20T03:35:20.942Z,99.90
2023-04-20T03:38:09.254Z,99.90
2023-04-20T03:40:56.768Z,99.90
2023-04-20T03:43:43.622Z,99.90
2023-04-20T03:46:30.606Z,99.90
2023-04-20T03:49:17.293Z,99.90
2023-04-20T03:52:04.790Z,99.90
2023-04-20T03:54:53.142Z,99.90
2023-04-20T03:57:40.190Z,99.90
2023-04-20T04:00:27.747Z,99.90
2023-04-20T04:03:24.081Z,99.90
2023-04-20T04:06:11.554Z,99.90
2023-04-20T04:08:58.103Z,99.90
2023-04-20T04:11:46.463Z,99.90
2023-04-20T04:14:33.923Z,99.90
2023-04-20T04:17:21.062Z,99.90
2023-04-20T04:20:10.349Z,99.90
2023-04-20T04:22:57.357Z,99.90
2023-04-20T04:26:07.310Z,99.90
2023-04-20T04:29:04.427Z,99.90
2023-04-20T04:31:50.996Z,99.90
2023-04-20T04:34:38.443Z,99.90
2023-04-20T04:37:25.481Z,99.90
2023-04-20T04:40:16.199Z,99.90
2023-04-20T04:43:03.943Z,99.90
2023-04-20T04:45:53.493Z,99.90
2023-04-20T04:48:42.351Z,99.90
2023-04-20T04:51:31.654Z,99.90
2023-04-20T04:54:18.388Z,99.90
2023-04-20T04:57:05.016Z,99.90
2023-04-20T04:59:51.723Z,99.90
2023-04-20T05:02:39.964Z,99.90
2023-04-20T05:05:26.844Z,99.90
2023-04-20T05:08:13.619Z,99.90
2023-04-20T05:11:00.899Z,99.90
2023-04-20T05:13:48.480Z,99.90
2023-04-20T05:16:35.408Z,99.90
2023-04-20T05:19:23.792Z,99.90
2023-04-20T05:22:10.269Z,99.90
2023-04-20T05:24:57.109Z,99.90
2023-04-20T05:27:43.583Z,99.90
2023-04-20T05:30:30.270Z,99.90
2023-04-20T05:33:17.674Z,99.90
2023-04-20T05:36:09.274Z,99.90
2023-04-20T05:38:56.076Z,99.90
2023-04-20T05:41:42.768Z,99.90
2023-04-20T05:44:29.235Z,99.90
2023-04-20T05:47:16.343Z,99.90
2023-04-20T05:50:03.368Z,99.90
2023-04-20T05:52:51.776Z,99.90
2023-04-20T05:55:38.398Z,99.90
2023-04-20T05:58:25.254Z,99.90
2023-04-20T06:01:12.104Z,99.90
2023-04-20T06:03:59.049Z,99.90
2023-04-20T06:06:45.746Z,99.90
2023-04-20T06:09:33.426Z,99.90
2023-04-20T06:12:20.052Z,99.90
2023-04-20T06:15:09.862Z,99.90
2023-04-20T06:17:57.065Z,99.90
2023-04-20T06:20:44.671Z,99.90
2023-04-20T06:23:31.764Z,99.90
2023-04-20T06:26:20.298Z,99.90
2023-04-20T06:29:06.788Z,99.90
2023-04-20T06:31:53.586Z,99.90
2023-04-20T06:34:40.282Z,99.90
2023-04-20T06:37:26.737Z,99.90
2023-04-20T06:40:16.047Z,99.80
2023-04-20T06:43:04.370Z,99.10
2023-04-20T06:45:50.942Z,99.10
2023-04-20T06:48:37.410Z,97.60
2023-04-20T06:51:24.439Z,97.20
2023-04-20T06:54:11.477Z,96.90
2023-04-20T06:56:58.357Z,97.10
2023-04-20T06:59:46.230Z,96.90
2023-04-20T07:02:43.466Z,97.30
2023-04-20T07:05:30.502Z,97.50
2023-04-20T07:08:16.913Z,96.80
2023-04-20T07:11:03.324Z,96.00
2023-04-20T07:13:49.652Z,96.00
2023-04-20T07:16:38.066Z,96.30
2023-04-20T07:19:24.912Z,96.40
2023-04-20T07:22:11.813Z,96.70
2023-04-20T07:24:58.221Z,95.90
2023-04-20T07:27:44.852Z,95.40
2023-04-20T07:30:32.144Z,95.90
2023-04-20T07:33:21.077Z,96.10
2023-04-20T07:36:07.790Z,95.50
2023-04-20T07:38:54.118Z,95.70
2023-04-20T07:41:40.522Z,94.60
2023-04-20T07:44:27.173Z,95.70
2023-04-20T07:47:13.881Z,95.30
2023-04-20T07:50:01.552Z,94.70
2023-04-20T07:52:48.074Z,94.10
2023-04-20T07:55:35.103Z,93.30
2023-04-20T07:58:22.454Z,92.80
2023-04-20T08:01:09.155Z,92.00
2023-04-20T08:03:56.221Z,91.80
2023-04-20T08:06:44.365Z,92.70
2023-04-20T08:09:31.293Z,92.50
2023-04-20T08:12:17.788Z,92.70
2023-04-20T08:15:06.237Z,92.40
2023-04-20T08:17:53.028Z,92.50
2023-04-20T08:20:39.647Z,92.00
2023-04-20T08:23:28.665Z,92.40
2023-04-20T08:26:16.909Z,92.70
2023-04-20T08:29:04.428Z,92.00
2023-04-20T08:31:51.833Z,91.20
2023-04-20T08:34:38.908Z,91.50
2023-04-20T08:37:26.971Z,92.10
2023-04-20T08:40:16.670Z,91.60
2023-04-20T08:43:03.187Z,91.70
2023-04-20T08:45:51.031Z,91.30
2023-04-20T08:48:38.890Z,91.90
2023-04-20T08:51:25.705Z,91.70
2023-04-20T08:54:13.422Z,92.80
2023-04-20T08:57:01.785Z,92.70
2023-04-20T08:59:49.312Z,93.80
2023-04-20T09:02:36.126Z,94.30
2023-04-20T09:05:28.009Z,94.60
2023-04-20T09:08:14.867Z,94.70
2023-04-20T09:11:01.324Z,95.20
2023-04-20T09:13:59.987Z,95.20
2023-04-20T09:16:53.776Z,94.50
2023-04-20T09:19:40.961Z,94.00
2023-04-20T09:22:32.284Z,93.70
2023-04-20T09:25:20.154Z,95.30
2023-04-20T09:28:06.661Z,96.30
2023-04-20T09:30:54.416Z,96.60
2023-04-20T09:33:41.084Z,96.90
2023-04-20T09:36:38.205Z,97.00
2023-04-20T09:39:26.906Z,97.10
2023-04-20T09:42:14.769Z,97.50
2023-04-20T09:45:02.256Z,97.40
2023-04-20T09:47:51.178Z,98.90
2023-04-20T09:50:48.344Z,98.90
2023-04-20T09:53:37.591Z,98.50
2023-04-20T09:56:24.028Z,98.90
2023-04-20T09:59:10.782Z,99.90
2023-04-20T10:01:57.293Z,99.90
2023-04-20T10:04:55.080Z,99.90
2023-04-20T10:07:41.746Z,99.90
2023-04-20T10:10:28.640Z,99.90
2023-04-20T10:13:16.016Z,99.90
2023-04-20T10:16:02.819Z,99.90
2023-04-20T10:19:00.132Z,99.90
2023-04-20T10:21:49.838Z,99.90
2023-04-20T10:24:38.126Z,99.90
2023-04-20T10:27:24.822Z,99.90
2023-04-20T10:30:12.123Z,99.90
2023-04-20T10:33:06.267Z,99.90
2023-04-20T10:35:57.749Z,99.90
2023-04-20T10:38:45.743Z,99.90
2023-04-20T10:41:32.774Z,99.90
2023-04-20T10:44:19.872Z,99.90
2023-04-20T10:47:06.812Z,99.90
2023-04-20T10:49:53.479Z,99.90
2023-04-20T10:52:41.634Z,99.90
2023-04-20T10:55:29.633Z,99.90
2023-04-20T10:58:23.621Z,99.90
2023-04-20T11:01:10.523Z,99.90
2023-04-20T11:03:57.553Z,99.90
2023-04-20T11:06:45.696Z,99.90
2023-04-20T11:09:33.868Z,99.90
2023-04-20T11:12:22.931Z,99.90
2023-04-20T11:15:10.956Z,99.90
2023-04-20T11:17:57.469Z,99.90
2023-04-20T11:20:52.215Z,99.90
2023-04-20T11:23:39.374Z,99.90
2023-04-20T11:26:35.765Z,99.90
2023-04-20T11:29:31.801Z,99.90
2023-04-20T11:32:20.323Z,99.90
2023-04-20T11:35:09.432Z,99.90
2023-04-20T11:37:57.580Z,99.90
2023-04-20T11:40:44.356Z,99.90
2023-04-20T11:43:31.857Z,99.90
2023-04-20T11:46:21.416Z,99.90
2023-04-20T11:49:08.080Z,99.90
2023-04-20T11:51:54.907Z,99.90
2023-04-20T11:54:41.719Z,99.90
2023-04-20T11:57:31.012Z,99.90
2023-04-20T12:00:19.365Z,99.90
2023-04-20T12:03:09.300Z,99.90
2023-04-20T12:05:56.277Z,99.90
2023-04-20T12:08:43.729Z,99.90
2023-04-20T12:11:30.823Z,99.90
2023-04-20T12:14:17.858Z,99.90
2023-04-20T12:17:05.691Z,99.90
2023-04-20T12:19:54.403Z,99.90
2023-04-20T12:22:41.663Z,99.90
2023-04-20T12:25:28.437Z,99.90
2023-04-20T12:28:15.542Z,99.90
2023-04-20T12:31:02.370Z,99.90
2023-04-20T12:33:49.081Z,99.90
2023-04-20T12:36:37.021Z,99.90
2023-04-20T12:39:23.462Z,99.90
2023-04-20T12:42:10.372Z,99.90
2023-04-20T12:45:00.171Z,99.90
2023-04-20T12:47:46.806Z,99.90
2023-04-20T12:50:33.682Z,99.90
2023-04-20T12:53:21.512Z,99.90
2023-04-20T12:56:08.718Z,99.90
2023-04-20T12:58:55.394Z,99.90
2023-04-20T13:01:41.882Z,99.90
2023-04-20T13:04:29.101Z,99.90
2023-04-20T13:07:15.987Z,99.90
2023-04-20T13:10:04.783Z,99.90
2023-04-20T13:12:52.464Z,99.90
2023-04-20T13:15:39.905Z,99.90
2023-04-20T13:18:26.644Z,99.90
2023-04-20T13:21:13.602Z,99.90
2023-04-20T13:23:59.997Z,99.90
2023-04-20T13:26:48.232Z,99.90
2023-04-20T13:29:34.877Z,99.90
2023-04-20T13:32:21.397Z,99.90
2023-04-20T13:35:12.238Z,99.90
2023-04-20T13:37:58.703Z,99.90
2023-04-20T13:40:45.209Z,99.90
2023-04-20T13:43:32.994Z,99.90
2023-04-20T13:46:20.154Z,99.90
2023-04-20T13:49:06.985Z,99.90
2023-04-20T13:51:53.815Z,99.90
2023-04-20T13:54:40.632Z,99.90
2023-04-20T13:57:27.218Z,99.90
2023-04-20T14:00:16.037Z,99.90
2023-04-20T14:03:03.204Z,99.90
2023-04-20T14:05:51.678Z,99.90
2023-04-20T14:08:38.632Z,99.90
2023-04-20T14:11:25.717Z,99.90
2023-04-20T14:14:12.771Z,99.90
2023-04-20T14:17:00.376Z,99.90
2023-04-20T14:19:47.694Z,99.90
2023-04-20T14:22:36.118Z,99.90
2023-04-20T14:25:22.832Z,99.90
2023-04-20T14:28:09.780Z,99.90
2023-04-20T14:30:56.201Z,99.90
2023-04-20T14:33:44.808Z,99.90
2023-04-20T14:36:32.601Z,99.90
2023-04-20T14:39:20.835Z,99.90
2023-04-20T14:42:07.705Z,99.90
2023-04-20T14:44:54.283Z,99.90
2023-04-20T14:47:41.883Z,99.90
2023-04-20T14:50:31.847Z,99.90
2023-04-20T14:53:18.263Z,99.90
2023-04-20T14:56:04.788Z,99.90
2023-04-20T14:58:52.354Z,99.90
2023-04-20T15:01:41.607Z,99.90
2023-04-20T15:04:35.223Z,99.90
2023-04-20T15:07:23.252Z,99.90
2023-04-20T15:10:10.246Z,99.90
2023-04-20T15:12:57.083Z,99.90
2023-04-20T15:15:48.956Z,99.90
2023-04-20T15:18:36.470Z,99.90
2023-04-20T15:21:23.227Z,99.90
2023-04-20T15:24:11.267Z,99.90
2023-04-20T15:26:57.892Z,99.90
2023-04-20T15:29:44.356Z,99.90
2023-04-20T15:32:33.528Z,99.90
2023-04-20T15:35:20.656Z,99.90
2023-04-20T15:38:08.081Z,99.90
2023-04-20T15:40:56.092Z,99.90
2023-04-20T15:43:43.618Z,99.90
2023-04-20T15:46:30.101Z,99.90
2023-04-20T15:49:19.964Z,99.90
2023-04-20T15:52:06.576Z,99.90
2023-04-20T15:54:53.031Z,99.90
2023-04-20T15:57:42.050Z,99.90
2023-04-20T16:00:30.294Z,99.90
2023-04-20T16:03:17.235Z,99.90
2023-04-20T16:06:04.370Z,99.90
2023-04-20T16:08:53.895Z,99.90
2023-04-20T16:11:41.200Z,99.90
2023-04-20T16:14:28.990Z,99.90
2023-04-20T16:17:16.231Z,99.90
2023-04-20T16:20:03.771Z,99.90
2023-04-20T16:22:50.380Z,99.90
2023-04-20T16:25:38.497Z,99.90
2023-04-20T16:28:25.166Z,99.90
2023-04-20T16:31:13.018Z,99.90
2023-04-20T16:34:00.606Z,99.90
2023-04-20T16:36:47.728Z,99.90
2023-04-20T16:39:34.163Z,99.90
2023-04-20T16:42:21.345Z,99.90
2023-04-20T16:45:09.153Z,99.90
2023-04-20T16:47:58.538Z,99.90
2023-04-20T16:50:45.605Z,99.90
2023-04-20T16:53:32.259Z,99.90
2023-04-20T16:56:19.361Z,99.90
2023-04-20T16:59:05.938Z,99.90
2023-04-20T17:01:52.296Z,99.90
2023-04-20T17:04:40.047Z,99.90
2023-04-20T17:07:26.733Z,99.90
2023-04-20T17:10:13.677Z,99.90
2023-04-20T17:13:00.141Z,99.90
2023-04-20T17:15:46.664Z,99.90
2023-04-20T17:18:35.101Z,99.90
2023-04-20T17:21:23.147Z,99.90
2023-04-20T17:24:09.898Z,99.90
2023-04-20T17:26:56.397Z,99.90
2023-04-20T17:29:44.680Z,99.90
2023-04-20T17:32:31.303Z,99.90
2023-04-20T17:35:17.839Z,99.90
2023-04-20T17:38:06.048Z,99.90
2023-04-20T17:40:52.722Z,99.90
2023-04-20T17:43:40.498Z,99.90
2023-04-20T17:46:27.934Z,99.90
2023-04-20T17:49:14.599Z,99.90
2023-04-20T17:52:01.034Z,99.90
2023-04-20T17:54:49.260Z,99.90
2023-04-20T17:57:36.312Z,99.90
2023-04-20T18:00:23.554Z,99.90
2023-04-20T18:03:10.197Z,99.90
2023-04-20T18:05:56.982Z,99.90
2023-04-20T18:08:43.429Z,99.90
2023-04-20T18:11:31.484Z,99.90
2023-04-20T18:14:18.264Z,99.90
2023-04-20T18:17:05.242Z,99.90
2023-04-20T18:19:52.145Z,99.90
2023-04-20T18:22:39.039Z,99.90
2023-04-20T18:25:26.065Z,99.90
2023-04-20T18:28:14.450Z,99.90
2023-04-20T18:31:01.032Z,99.90
2023-04-20T18:33:47.826Z,99.90
2023-04-20T18:36:34.224Z,99.90
2023-04-20T18:39:20.716Z,99.90
2023-04-20T18:42:07.137Z,99.90
2023-04-20T18:44:55.931Z,99.90
2023-04-20T18:47:43.116Z,99.90
2023-04-20T18:50:29.859Z,99.90
2023-04-20T18:53:16.693Z,99.90
2023-04-20T18:56:03.447Z,99.90
2023-04-20T18:58:50.380Z,99.90
2023-04-20T19:01:40.691Z,99.90
2023-04-20T19:04:27.652Z,99.90
2023-04-20T19:07:14.646Z,99.90
2023-04-20T19:10:01.805Z,99.90
2023-04-20T19:12:48.475Z,99.90
2023-04-20T19:15:35.188Z,99.90
2023-04-20T19:18:23.076Z,99.90
2023-04-20T19:21:09.433Z,99.90
2023-04-20T19:23:56.718Z,99.90
2023-04-20T19:26:44.066Z,99.90
2023-04-20T19:29:31.288Z,99.90
2023-04-20T19:32:17.858Z,99.90
2023-04-20T19:35:06.601Z,99.90
2023-04-20T19:37:53.317Z,99.90
2023-04-20T19:40:39.719Z,99.90
2023-04-20T19:43:26.208Z,99.90
2023-04-20T19:46:15.232Z,99.90
2023-04-20T19:49:04.076Z,99.90
2023-04-20T19:51:51.887Z,99.90
2023-04-20T19:54:38.614Z,99.90
2023-04-20T19:57:25.462Z,99.90
2023-04-20T20:00:13.327Z,99.90
2023-04-20T20:03:00.201Z,99.90
2023-04-20T20:05:47.061Z,99.90
2023-04-20T20:08:34.769Z,99.90
2023-04-20T20:11:22.428Z,99.90
2023-04-20T20:14:09.283Z,99.90
2023-04-20T20:16:56.628Z,99.90
2023-04-20T20:19:43.369Z,99.90
2023-04-20T20:22:30.164Z,99.90
2023-04-20T20:25:19.849Z,99.90
2023-04-20T20:28:06.661Z,99.90
2023-04-20T20:30:53.576Z,99.90
2023-04-20T20:33:42.688Z,99.90
2023-04-20T20:36:31.968Z,99.90
2023-04-20T20:39:18.725Z,99.90
2023-04-20T20:42:09.180Z,99.90
2023-04-20T20:44:58.249Z,99.90
2023-04-20T20:47:46.470Z,99.90
2023-04-20T20:50:33.098Z,99.90
2023-04-20T20:53:20.308Z,99.90
2023-04-20T20:56:07.068Z,99.90
2023-04-20T20:58:55.049Z,99.90
2023-04-20T21:01:41.593Z,99.90
2023-04-20T21:04:29.806Z,99.90
2023-04-20T21:07:16.626Z,99.90
2023-04-20T21:10:03.590Z,99.90
2023-04-20T21:12:50.369Z,99.90
2023-04-20T21:15:38.199Z,99.90
2023-04-20T21:18:24.500Z,99.90
2023-04-20T21:21:13.277Z,99.90
2023-04-20T21:23:59.845Z,99.90
2023-04-20T21:26:46.881Z,99.90
2023-04-20T21:29:33.398Z,99.90
2023-04-20T21:32:21.312Z,99.90
2023-04-20T21:35:09.087Z,99.90
2023-04-20T21:37:55.602Z,99.90
2023-04-20T21:40:41.902Z,99.90
2023-04-20T21:43:28.559Z,99.90
2023-04-20T21:46:15.881Z,99.90
2023-04-20T21:49:04.129Z,99.90
2023-04-20T21:51:50.846Z,99.90
2023-04-20T21:54:37.860Z,99.90
2023-04-20T21:57:24.518Z,99.90
2023-04-20T22:00:12.181Z,99.90
2023-04-20T22:03:02.395Z,99.90
2023-04-20T22:05:50.457Z,99.90
2023-04-20T22:08:39.577Z,99.90
2023-04-20T22:11:26.516Z,99.90
2023-04-20T22:14:12.953Z,99.90
2023-04-20T22:16:59.398Z,99.90
2023-04-20T22:19:46.434Z,99.90
2023-04-20T22:22:34.632Z,99.90
2023-04-20T22:25:20.983Z,99.90
2023-04-20T22:28:07.365Z,99.90
2023-04-20T22:30:54.273Z,99.90
2023-04-20T22:33:41.022Z,99.90
2023-04-20T22:36:28.058Z,99.90
2023-04-20T22:39:15.839Z,99.90
2023-04-20T22:42:02.843Z,99.90
2023-04-20T22:44:49.353Z,99.90
2023-04-20T22:47:35.806Z,99.90
2023-04-20T22:50:22.687Z,99.90
2023-04-20T22:53:08.957Z,99.90
2023-04-20T22:56:03.886Z,99.90
2023-04-20T22:58:50.179Z,99.90
2023-04-20T23:01:36.620Z,99.90
2023-04-20T23:04:23.055Z,99.90
2023-04-20T23:07:10.033Z,99.90
2023-04-20T23:09:56.546Z,99.90
2023-04-20T23:12:46.821Z,99.90
2023-04-20T23:15:33.510Z,99.90
2023-04-20T23:18:20.418Z,99.90
2023-04-20T23:21:07.401Z,99.90
2023-04-20T23:23:55.826Z,99.90
2023-04-20T23:26:42.222Z,99.90
2023-04-20T23:29:30.318Z,99.90
2023-04-20T23:32:16.923Z,99.90
2023-04-20T23:35:03.342Z,99.90
2023-04-20T23:37:49.840Z,99.90
2023-04-20T23:40:36.202Z,99.90
2023-04-20T23:43:22.538Z,99.90
2023-04-20T23:46:10.536Z,99.90
2023-04-20T23:48:57.447Z,99.90
2023-04-20T23:51:43.717Z,99.90
2023-04-20T23:54:32.638Z,99.90
2023-04-20T23:57:19.646Z,99.90
